Beloit, KS

10:57 AM CDT on July 21, 2017 (GMT -0500)
Kansas | | Change Station
Active Advisory: Excessive Heat Warning

Elev 1404 ft 39.46 °N, 98.10 °W | Updated 4 seconds ago

Clear
Clear
95.2 °F
Feels Like 99 °F
N
1.4
Wind Variable Wind from SSE
Gusts 4.0 mph

Today
High -- | Low -- °F
--% Chance of Precip.
Yesterday
High -- | Low -- °F
Precip. -- in
Pressure 29.80 in
Visibility 10.0 miles
Clouds Clear
Heat Index 99 °F
Dew Point 67 °F
Humidity 40%
Rainfall 0.00 in
Snow Depth Not available.
6:22 AM 8:54 PM
Waning Crescent, 4% visible
METAR KCNK 211555Z AUTO 19015KT 10SM CLR 34/20 A2986 RMK AO2 SLP089 T03390200
Pressure 29.80 in
Visibility 10.0 miles
Clouds Clear
Heat Index 99 °F
Dew Point 67 °F
Humidity 40%
Rainfall 0.00 in
Snow Depth Not available.
6:22 AM 8:54 PM
Waning Crescent, 4% visible
METAR KCNK 211555Z AUTO 19015KT 10SM CLR 34/20 A2986 RMK AO2 SLP089 T03390200

Get Your Daily Forecast Email!

Thanks for signing up!

Be on the lookout for a verification email in your inbox.

You'll start receiving severe weather alerts in your inbox..

×

10-Day Weather Forecast

Almanac

Astronomy

Jul. 21, 2017 Rise Set
Actual Time
Civil Twilight
Nautical Twilight
Astronomical Twilight
Moon
Length of Visible Light
Length of Day
Tomorrow will be .
, % of the Moon is Illuminated

Today's Extremes

State Highs State Lows

Community

WunderPhotos

Category 6

Welcome to Category 6. This is the collective home for Weather Underground's featured writeups by Dr. Jeff Masters (right), Bob Henson (left), Chris Burt, and other regular contributors.

Nearby

Air Quality

  Air Quality AQ Index Pollutant
Not available.

Snow Depth

Station Depth Elevation

Earthquake Activity

City Distance Mag. Time & Date
Minimum magnitude displayed is 2.5.

Coastal Water Temperatures

Place Temperature

Stations

Nearby Weather Stations

Station Location Temp. Windchill Dew Point Humidity Wind Precip. Elev Updated Type
                   

Watches & Warnings

Excessive Heat Warning
Issued: 5:14 AM CDT Jul. 21, 2017 – National Weather Service

... Excessive heat warning remains in effect until 8 PM CDT this
evening...

* heat Index... Peak afternoon heat index of 102 to 111 degrees.

* Timing... expect the most dangerous heat from 12 PM to 8 PM
Friday.

* Impacts... prolonged exposure to hot weather will lead to heat-
related illnesses if precautions are not taken.

Precautionary/preparedness actions...

An excessive heat warning means that a prolonged period of
dangerously hot temperatures will occur. The combination of hot
temperatures and high humidity will combine to create a dangerous
situation in which heat illnesses are likely. Drink plenty of
fluids, stay in an air-conditioned room, stay out of the sun, and
check up on relatives and neighbors.